sensor_id;sensor_type;location;lat;lon;timestamp;temperature;humidity
80579;SHT31;69939;52.402;6.608;2024-01-15T00:01:52;0.96;99.99
80579;SHT31;69939;52.402;6.608;2024-01-15T00:04:22;0.94;99.99
80579;SHT31;69939;52.402;6.608;2024-01-15T00:06:51;0.96;99.99
80579;SHT31;69939;52.402;6.608;2024-01-15T00:09:22;0.92;99.99
80579;SHT31;69939;52.402;6.608;2024-01-15T00:11:53;0.94;99.99
80579;SHT31;69939;52.402;6.608;2024-01-15T00:14:22;0.89;99.99
80579;SHT31;69939;52.402;6.608;2024-01-15T00:16:56;0.84;99.99
80579;SHT31;69939;52.402;6.608;2024-01-15T00:19:25;0.84;99.99
80579;SHT31;69939;52.402;6.608;2024-01-15T00:21:57;0.73;99.99
80579;SHT31;69939;52.402;6.608;2024-01-15T00:24:27;0.77;99.99
80579;SHT31;69939;52.402;6.608;2024-01-15T00:26:57;0.80;99.99
80579;SHT31;69939;52.402;6.608;2024-01-15T00:29:36;0.81;99.99
80579;SHT31;69939;52.402;6.608;2024-01-15T00:32:06;0.75;99.99
80579;SHT31;69939;52.402;6.608;2024-01-15T00:34:36;0.75;99.99
80579;SHT31;69939;52.402;6.608;2024-01-15T00:37:09;0.71;99.99
80579;SHT31;69939;52.402;6.608;2024-01-15T00:39:39;0.65;99.99
80579;SHT31;69939;52.402;6.608;2024-01-15T00:42:08;0.65;99.99
80579;SHT31;69939;52.402;6.608;2024-01-15T00:44:43;0.65;99.99
80579;SHT31;69939;52.402;6.608;2024-01-15T00:47:12;0.64;99.99
80579;SHT31;69939;52.402;6.608;2024-01-15T00:49:42;0.67;99.99
80579;SHT31;69939;52.402;6.608;2024-01-15T00:52:12;0.68;99.99
80579;SHT31;69939;52.402;6.608;2024-01-15T00:54:44;0.73;99.99
80579;SHT31;69939;52.402;6.608;2024-01-15T00:57:13;0.63;99.99
80579;SHT31;69939;52.402;6.608;2024-01-15T00:59:48;0.65;99.99
80579;SHT31;69939;52.402;6.608;2024-01-15T01:02:18;0.71;99.99
80579;SHT31;69939;52.402;6.608;2024-01-15T01:04:48;0.65;99.99
80579;SHT31;69939;52.402;6.608;2024-01-15T01:07:18;0.70;99.99
80579;SHT31;69939;52.402;6.608;2024-01-15T01:09:47;0.75;99.99
80579;SHT31;69939;52.402;6.608;2024-01-15T01:12:18;0.77;99.99
80579;SHT31;69939;52.402;6.608;2024-01-15T01:14:50;0.74;99.99
80579;SHT31;69939;52.402;6.608;2024-01-15T01:17:21;0.77;99.99
80579;SHT31;69939;52.402;6.608;2024-01-15T01:19:50;0.78;99.99
80579;SHT31;69939;52.402;6.608;2024-01-15T01:22:20;0.74;99.99
80579;SHT31;69939;52.402;6.608;2024-01-15T01:24:49;0.75;99.99
80579;SHT31;69939;52.402;6.608;2024-01-15T01:27:19;0.74;99.99
80579;SHT31;69939;52.402;6.608;2024-01-15T01:29:51;0.74;99.99
80579;SHT31;69939;52.402;6.608;2024-01-15T01:32:21;0.64;99.99
80579;SHT31;69939;52.402;6.608;2024-01-15T01:34:50;0.68;99.99
80579;SHT31;69939;52.402;6.608;2024-01-15T01:37:20;0.63;99.99
80579;SHT31;69939;52.402;6.608;2024-01-15T01:39:50;0.67;99.99
80579;SHT31;69939;52.402;6.608;2024-01-15T01:42:19;0.65;99.99
80579;SHT31;69939;52.402;6.608;2024-01-15T01:44:52;0.64;99.99
80579;SHT31;69939;52.402;6.608;2024-01-15T01:47:22;0.71;99.99
80579;SHT31;69939;52.402;6.608;2024-01-15T01:49:52;0.75;99.99
80579;SHT31;69939;52.402;6.608;2024-01-15T01:52:22;0.75;99.99
80579;SHT31;69939;52.402;6.608;2024-01-15T01:54:53;0.70;99.99
80579;SHT31;69939;52.402;6.608;2024-01-15T01:57:23;0.82;99.99
80579;SHT31;69939;52.402;6.608;2024-01-15T01:59:58;0.88;99.86
80579;SHT31;69939;52.402;6.608;2024-01-15T02:02:29;0.95;99.72
80579;SHT31;69939;52.402;6.608;2024-01-15T02:04:59;1.02;98.78
80579;SHT31;69939;52.402;6.608;2024-01-15T02:07:29;0.99;98.51
80579;SHT31;69939;52.402;6.608;2024-01-15T02:09:58;0.98;98.59
80579;SHT31;69939;52.402;6.608;2024-01-15T02:12:28;0.96;98.76
80579;SHT31;69939;52.402;6.608;2024-01-15T02:15:00;1.01;97.72
80579;SHT31;69939;52.402;6.608;2024-01-15T02:17:30;0.96;98.03
80579;SHT31;69939;52.402;6.608;2024-01-15T02:19:59;0.95;97.93
80579;SHT31;69939;52.402;6.608;2024-01-15T02:22:29;0.91;98.10
80579;SHT31;69939;52.402;6.608;2024-01-15T02:25:01;1.02;97.46
80579;SHT31;69939;52.402;6.608;2024-01-15T02:27:31;1.03;97.56
80579;SHT31;69939;52.402;6.608;2024-01-15T02:30:11;1.03;97.38
80579;SHT31;69939;52.402;6.608;2024-01-15T02:32:41;1.05;97.36
80579;SHT31;69939;52.402;6.608;2024-01-15T02:35:10;1.08;97.36
80579;SHT31;69939;52.402;6.608;2024-01-15T02:37:43;1.18;97.28
80579;SHT31;69939;52.402;6.608;2024-01-15T02:40:13;1.18;97.24
80579;SHT31;69939;52.402;6.608;2024-01-15T02:42:43;1.25;97.19
80579;SHT31;69939;52.402;6.608;2024-01-15T02:45:18;1.30;96.81
80579;SHT31;69939;52.402;6.608;2024-01-15T02:47:50;1.36;96.76
80579;SHT31;69939;52.402;6.608;2024-01-15T02:50:19;1.38;96.86
80579;SHT31;69939;52.402;6.608;2024-01-15T02:52:51;1.44;96.57
80579;SHT31;69939;52.402;6.608;2024-01-15T02:55:23;1.43;96.76
80579;SHT31;69939;52.402;6.608;2024-01-15T02:57:54;1.40;96.93
80579;SHT31;69939;52.402;6.608;2024-01-15T03:00:27;1.29;97.01
80579;SHT31;69939;52.402;6.608;2024-01-15T03:02:56;1.23;97.56
80579;SHT31;69939;52.402;6.608;2024-01-15T03:05:26;1.19;97.49
80579;SHT31;69939;52.402;6.608;2024-01-15T03:07:55;1.33;97.10
80579;SHT31;69939;52.402;6.608;2024-01-15T03:10:25;1.35;97.01
80579;SHT31;69939;52.402;6.608;2024-01-15T03:13:02;1.51;96.56
80579;SHT31;69939;52.402;6.608;2024-01-15T03:15:32;1.60;96.44
80579;SHT31;69939;52.402;6.608;2024-01-15T03:18:02;1.59;96.73
80579;SHT31;69939;52.402;6.608;2024-01-15T03:20:33;1.60;96.97
80579;SHT31;69939;52.402;6.608;2024-01-15T03:23:05;1.59;97.50
80579;SHT31;69939;52.402;6.608;2024-01-15T03:25:35;1.51;98.41
80579;SHT31;69939;52.402;6.608;2024-01-15T03:28:10;1.46;99.73
80579;SHT31;69939;52.402;6.608;2024-01-15T03:30:40;1.42;99.99
80579;SHT31;69939;52.402;6.608;2024-01-15T03:33:09;1.39;99.99
80579;SHT31;69939;52.402;6.608;2024-01-15T03:35:39;1.36;99.99
80579;SHT31;69939;52.402;6.608;2024-01-15T03:38:08;1.36;99.99
80579;SHT31;69939;52.402;6.608;2024-01-15T03:40:38;1.42;99.99
80579;SHT31;69939;52.402;6.608;2024-01-15T03:43:13;1.29;99.99
80579;SHT31;69939;52.402;6.608;2024-01-15T03:45:48;1.25;99.99
80579;SHT31;69939;52.402;6.608;2024-01-15T03:48:17;1.22;99.99
80579;SHT31;69939;52.402;6.608;2024-01-15T03:50:48;1.09;99.99
80579;SHT31;69939;52.402;6.608;2024-01-15T03:53:18;1.08;99.99
80579;SHT31;69939;52.402;6.608;2024-01-15T03:55:47;1.09;99.99
80579;SHT31;69939;52.402;6.608;2024-01-15T03:58:22;1.09;99.99
80579;SHT31;69939;52.402;6.608;2024-01-15T04:00:52;1.09;99.99
80579;SHT31;69939;52.402;6.608;2024-01-15T04:03:21;1.11;99.99
80579;SHT31;69939;52.402;6.608;2024-01-15T04:05:51;1.22;99.99
80579;SHT31;69939;52.402;6.608;2024-01-15T04:08:21;1.15;99.99
80579;SHT31;69939;52.402;6.608;2024-01-15T04:10:51;1.12;99.99
80579;SHT31;69939;52.402;6.608;2024-01-15T04:13:23;1.15;99.99
80579;SHT31;69939;52.402;6.608;2024-01-15T04:15:52;1.09;99.99
80579;SHT31;69939;52.402;6.608;2024-01-15T04:18:22;1.05;99.99
80579;SHT31;69939;52.402;6.608;2024-01-15T04:20:51;1.01;99.99
80579;SHT31;69939;52.402;6.608;2024-01-15T04:23:22;1.08;99.99
80579;SHT31;69939;52.402;6.608;2024-01-15T04:25:51;1.05;99.99
80579;SHT31;69939;52.402;6.608;2024-01-15T04:28:26;1.02;99.99
80579;SHT31;69939;52.402;6.608;2024-01-15T04:30:55;0.98;99.99
80579;SHT31;69939;52.402;6.608;2024-01-15T04:33:25;0.92;99.99
80579;SHT31;69939;52.402;6.608;2024-01-15T04:35:54;0.95;99.99
80579;SHT31;69939;52.402;6.608;2024-01-15T04:38:24;0.95;99.99
80579;SHT31;69939;52.402;6.608;2024-01-15T04:40:54;0.99;99.99
80579;SHT31;69939;52.402;6.608;2024-01-15T04:43:28;1.03;99.99
80579;SHT31;69939;52.402;6.608;2024-01-15T04:45:57;1.09;99.99
80579;SHT31;69939;52.402;6.608;2024-01-15T04:48:29;1.12;99.99
80579;SHT31;69939;52.402;6.608;2024-01-15T04:51:09;1.12;99.99
80579;SHT31;69939;52.402;6.608;2024-01-15T04:53:38;1.11;99.99
80579;SHT31;69939;52.402;6.608;2024-01-15T04:56:08;1.08;99.99
80579;SHT31;69939;52.402;6.608;2024-01-15T04:58:38;1.08;99.99
80579;SHT31;69939;52.402;6.608;2024-01-15T05:01:08;1.08;99.99
80579;SHT31;69939;52.402;6.608;2024-01-15T05:03:40;1.05;99.99
80579;SHT31;69939;52.402;6.608;2024-01-15T05:06:12;1.11;99.99
80579;SHT31;69939;52.402;6.608;2024-01-15T05:08:42;1.09;99.99
80579;SHT31;69939;52.402;6.608;2024-01-15T05:11:17;1.05;99.99
80579;SHT31;69939;52.402;6.608;2024-01-15T05:13:47;1.09;99.99
80579;SHT31;69939;52.402;6.608;2024-01-15T05:16:16;1.06;99.99
80579;SHT31;69939;52.402;6.608;2024-01-15T05:18:46;1.12;99.99
80579;SHT31;69939;52.402;6.608;2024-01-15T05:21:15;1.12;99.99
80579;SHT31;69939;52.402;6.608;2024-01-15T05:23:45;1.06;99.99
80579;SHT31;69939;52.402;6.608;2024-01-15T05:26:17;1.05;99.99
80579;SHT31;69939;52.402;6.608;2024-01-15T05:28:52;1.05;99.99
80579;SHT31;69939;52.402;6.608;2024-01-15T05:31:22;1.03;99.99
80579;SHT31;69939;52.402;6.608;2024-01-15T05:33:51;1.03;99.99
80579;SHT31;69939;52.402;6.608;2024-01-15T05:36:21;1.01;99.99
80579;SHT31;69939;52.402;6.608;2024-01-15T05:38:51;0.94;99.99
80579;SHT31;69939;52.402;6.608;2024-01-15T05:41:20;0.94;99.99
80579;SHT31;69939;52.402;6.608;2024-01-15T05:43:53;0.91;99.99
80579;SHT31;69939;52.402;6.608;2024-01-15T05:46:23;0.88;99.99
80579;SHT31;69939;52.402;6.608;2024-01-15T05:48:53;0.82;99.99
80579;SHT31;69939;52.402;6.608;2024-01-15T05:51:22;0.80;99.99
80579;SHT31;69939;52.402;6.608;2024-01-15T05:53:52;0.75;99.99
80579;SHT31;69939;52.402;6.608;2024-01-15T05:56:22;0.74;99.99
80579;SHT31;69939;52.402;6.608;2024-01-15T05:58:55;0.73;99.99
80579;SHT31;69939;52.402;6.608;2024-01-15T06:01:25;0.73;99.99
80579;SHT31;69939;52.402;6.608;2024-01-15T06:03:54;0.73;99.99
80579;SHT31;69939;52.402;6.608;2024-01-15T06:06:24;0.80;99.99
80579;SHT31;69939;52.402;6.608;2024-01-15T06:08:53;0.81;99.99
80579;SHT31;69939;52.402;6.608;2024-01-15T06:11:29;0.87;99.99
80579;SHT31;69939;52.402;6.608;2024-01-15T06:14:03;0.87;99.99
80579;SHT31;69939;52.402;6.608;2024-01-15T06:16:32;0.82;99.99
80579;SHT31;69939;52.402;6.608;2024-01-15T06:19:02;0.78;99.99
80579;SHT31;69939;52.402;6.608;2024-01-15T06:21:32;0.73;99.99
80579;SHT31;69939;52.402;6.608;2024-01-15T06:24:09;0.73;99.99
80579;SHT31;69939;52.402;6.608;2024-01-15T06:26:39;0.70;99.99
80579;SHT31;69939;52.402;6.608;2024-01-15T06:29:09;0.74;99.99
80579;SHT31;69939;52.402;6.608;2024-01-15T06:31:39;0.77;99.99
80579;SHT31;69939;52.402;6.608;2024-01-15T06:34:08;0.75;99.99
80579;SHT31;69939;52.402;6.608;2024-01-15T06:36:39;0.70;99.99
80579;SHT31;69939;52.402;6.608;2024-01-15T06:39:11;0.67;99.99
80579;SHT31;69939;52.402;6.608;2024-01-15T06:41:41;0.67;99.99
80579;SHT31;69939;52.402;6.608;2024-01-15T06:44:13;0.70;99.99
80579;SHT31;69939;52.402;6.608;2024-01-15T06:46:43;0.71;99.99
80579;SHT31;69939;52.402;6.608;2024-01-15T06:49:13;0.70;99.99
80579;SHT31;69939;52.402;6.608;2024-01-15T06:51:48;0.70;99.99
80579;SHT31;69939;52.402;6.608;2024-01-15T06:54:18;0.65;99.99
80579;SHT31;69939;52.402;6.608;2024-01-15T06:56:47;0.63;99.99
80579;SHT31;69939;52.402;6.608;2024-01-15T06:59:17;0.60;99.99
80579;SHT31;69939;52.402;6.608;2024-01-15T07:01:47;0.60;99.99
80579;SHT31;69939;52.402;6.608;2024-01-15T07:04:17;0.56;99.99
80579;SHT31;69939;52.402;6.608;2024-01-15T07:06:49;0.57;99.99
80579;SHT31;69939;52.402;6.608;2024-01-15T07:09:18;0.54;99.99
80579;SHT31;69939;52.402;6.608;2024-01-15T07:11:48;0.54;99.99
80579;SHT31;69939;52.402;6.608;2024-01-15T07:14:17;0.57;99.99
80579;SHT31;69939;52.402;6.608;2024-01-15T07:16:52;0.57;99.99
80579;SHT31;69939;52.402;6.608;2024-01-15T07:19:25;0.60;99.99
80579;SHT31;69939;52.402;6.608;2024-01-15T07:21:55;0.57;99.99
80579;SHT31;69939;52.402;6.608;2024-01-15T07:24:25;0.57;99.99
80579;SHT31;69939;52.402;6.608;2024-01-15T07:26:55;0.57;99.99
80579;SHT31;69939;52.402;6.608;2024-01-15T07:29:30;0.58;99.99
80579;SHT31;69939;52.402;6.608;2024-01-15T07:32:03;0.56;99.99
80579;SHT31;69939;52.402;6.608;2024-01-15T07:34:37;0.58;99.99
80579;SHT31;69939;52.402;6.608;2024-01-15T07:37:10;0.54;99.99
80579;SHT31;69939;52.402;6.608;2024-01-15T07:39:40;0.54;99.99
80579;SHT31;69939;52.402;6.608;2024-01-15T07:42:12;0.49;99.99
80579;SHT31;69939;52.402;6.608;2024-01-15T07:44:44;0.49;99.99
80579;SHT31;69939;52.402;6.608;2024-01-15T07:47:13;0.50;99.99
80579;SHT31;69939;52.402;6.608;2024-01-15T07:49:43;0.52;99.99
80579;SHT31;69939;52.402;6.608;2024-01-15T07:52:12;0.53;99.99
80579;SHT31;69939;52.402;6.608;2024-01-15T07:54:42;0.53;99.99
80579;SHT31;69939;52.402;6.608;2024-01-15T07:57:11;0.53;99.99
80579;SHT31;69939;52.402;6.608;2024-01-15T07:59:41;0.53;99.99
80579;SHT31;69939;52.402;6.608;2024-01-15T08:02:13;0.50;99.99
80579;SHT31;69939;52.402;6.608;2024-01-15T08:04:42;0.52;99.99
80579;SHT31;69939;52.402;6.608;2024-01-15T08:07:14;0.52;99.99
80579;SHT31;69939;52.402;6.608;2024-01-15T08:09:43;0.56;99.99
80579;SHT31;69939;52.402;6.608;2024-01-15T08:12:13;0.58;99.99
80579;SHT31;69939;52.402;6.608;2024-01-15T08:14:45;0.63;99.99
80579;SHT31;69939;52.402;6.608;2024-01-15T08:17:20;0.58;99.99
80579;SHT31;69939;52.402;6.608;2024-01-15T08:19:53;0.64;99.99
80579;SHT31;69939;52.402;6.608;2024-01-15T08:22:23;0.61;99.99
80579;SHT31;69939;52.402;6.608;2024-01-15T08:24:52;0.60;99.99
80579;SHT31;69939;52.402;6.608;2024-01-15T08:27:22;0.63;99.99
80579;SHT31;69939;52.402;6.608;2024-01-15T08:29:51;0.64;99.99
80579;SHT31;69939;52.402;6.608;2024-01-15T08:32:29;0.64;99.99
80579;SHT31;69939;52.402;6.608;2024-01-15T08:35:05;0.67;99.99
80579;SHT31;69939;52.402;6.608;2024-01-15T08:37:34;0.70;99.99
80579;SHT31;69939;52.402;6.608;2024-01-15T08:40:04;0.75;99.99
80579;SHT31;69939;52.402;6.608;2024-01-15T08:42:35;0.77;99.99
80579;SHT31;69939;52.402;6.608;2024-01-15T08:45:05;0.85;99.99
80579;SHT31;69939;52.402;6.608;2024-01-15T08:47:38;0.87;99.99
80579;SHT31;69939;52.402;6.608;2024-01-15T08:50:07;0.96;99.99
80579;SHT31;69939;52.402;6.608;2024-01-15T08:52:37;0.94;99.99
80579;SHT31;69939;52.402;6.608;2024-01-15T08:55:07;1.02;99.99
80579;SHT31;69939;52.402;6.608;2024-01-15T08:57:39;1.18;99.99
80579;SHT31;69939;52.402;6.608;2024-01-15T09:00:10;1.15;99.99
80579;SHT31;69939;52.402;6.608;2024-01-15T09:02:46;1.02;99.99
80579;SHT31;69939;52.402;6.608;2024-01-15T09:05:16;0.95;99.99
80579;SHT31;69939;52.402;6.608;2024-01-15T09:07:45;1.06;99.99
80579;SHT31;69939;52.402;6.608;2024-01-15T09:10:17;1.11;99.99
80579;SHT31;69939;52.402;6.608;2024-01-15T09:12:52;1.19;99.99
80579;SHT31;69939;52.402;6.608;2024-01-15T09:15:21;1.13;99.99
80579;SHT31;69939;52.402;6.608;2024-01-15T09:17:51;1.09;99.99
80579;SHT31;69939;52.402;6.608;2024-01-15T09:20:20;1.06;99.99
80579;SHT31;69939;52.402;6.608;2024-01-15T09:22:51;1.09;99.99
80579;SHT31;69939;52.402;6.608;2024-01-15T09:25:20;0.96;99.99
80579;SHT31;69939;52.402;6.608;2024-01-15T09:27:52;0.96;99.99
80579;SHT31;69939;52.402;6.608;2024-01-15T09:30:22;0.96;99.99
80579;SHT31;69939;52.402;6.608;2024-01-15T09:32:52;1.23;99.99
80579;SHT31;69939;52.402;6.608;2024-01-15T09:35:21;1.22;99.99
80579;SHT31;69939;52.402;6.608;2024-01-15T09:37:50;1.19;99.99
80579;SHT31;69939;52.402;6.608;2024-01-15T09:40:31;1.54;99.99
80579;SHT31;69939;52.402;6.608;2024-01-15T09:43:01;1.68;99.99
80579;SHT31;69939;52.402;6.608;2024-01-15T09:45:31;1.97;99.99
80579;SHT31;69939;52.402;6.608;2024-01-15T09:48:00;2.19;98.18
80579;SHT31;69939;52.402;6.608;2024-01-15T09:50:30;1.87;98.35
80579;SHT31;69939;52.402;6.608;2024-01-15T09:53:00;1.30;99.45
80579;SHT31;69939;52.402;6.608;2024-01-15T09:55:33;1.11;99.99
80579;SHT31;69939;52.402;6.608;2024-01-15T09:58:03;0.92;99.99
80579;SHT31;69939;52.402;6.608;2024-01-15T10:00:34;0.94;99.99
80579;SHT31;69939;52.402;6.608;2024-01-15T10:03:07;1.38;99.99
80579;SHT31;69939;52.402;6.608;2024-01-15T10:05:38;1.80;99.99
80579;SHT31;69939;52.402;6.608;2024-01-15T10:08:08;2.04;99.56
80579;SHT31;69939;52.402;6.608;2024-01-15T10:10:41;2.02;99.15
80579;SHT31;69939;52.402;6.608;2024-01-15T10:13:11;2.07;99.27
80579;SHT31;69939;52.402;6.608;2024-01-15T10:15:45;1.88;98.61
80579;SHT31;69939;52.402;6.608;2024-01-15T10:18:15;1.84;99.63
80579;SHT31;69939;52.402;6.608;2024-01-15T10:20:45;1.90;99.61
80579;SHT31;69939;52.402;6.608;2024-01-15T10:23:15;2.39;98.84
80579;SHT31;69939;52.402;6.608;2024-01-15T10:25:48;2.79;99.22
80579;SHT31;69939;52.402;6.608;2024-01-15T10:28:20;2.67;96.91
80579;SHT31;69939;52.402;6.608;2024-01-15T10:30:52;2.58;98.16
80579;SHT31;69939;52.402;6.608;2024-01-15T10:33:23;2.42;98.42
80579;SHT31;69939;52.402;6.608;2024-01-15T10:35:54;2.70;98.08
80579;SHT31;69939;52.402;6.608;2024-01-15T10:38:24;2.68;97.86
80579;SHT31;69939;52.402;6.608;2024-01-15T10:40:56;2.39;97.51
80579;SHT31;69939;52.402;6.608;2024-01-15T10:43:26;2.15;98.71
80579;SHT31;69939;52.402;6.608;2024-01-15T10:45:55;1.98;99.21
80579;SHT31;69939;52.402;6.608;2024-01-15T10:48:27;1.82;99.04
80579;SHT31;69939;52.402;6.608;2024-01-15T10:50:57;1.67;99.99
80579;SHT31;69939;52.402;6.608;2024-01-15T10:53:29;1.66;99.99
80579;SHT31;69939;52.402;6.608;2024-01-15T10:56:04;1.84;99.99
80579;SHT31;69939;52.402;6.608;2024-01-15T10:58:35;2.15;99.54
80579;SHT31;69939;52.402;6.608;2024-01-15T11:01:06;2.40;98.55
80579;SHT31;69939;52.402;6.608;2024-01-15T11:03:36;2.08;98.75
80579;SHT31;69939;52.402;6.608;2024-01-15T11:06:19;1.97;99.18
80579;SHT31;69939;52.402;6.608;2024-01-15T11:08:52;1.94;99.66
80579;SHT31;69939;52.402;6.608;2024-01-15T11:11:22;1.85;99.76
80579;SHT31;69939;52.402;6.608;2024-01-15T11:13:51;1.70;99.99
80579;SHT31;69939;52.402;6.608;2024-01-15T11:16:22;1.44;99.99
80579;SHT31;69939;52.402;6.608;2024-01-15T11:19:03;1.39;99.99
80579;SHT31;69939;52.402;6.608;2024-01-15T11:21:42;1.47;99.99
80579;SHT31;69939;52.402;6.608;2024-01-15T11:24:36;1.46;99.99
80579;SHT31;69939;52.402;6.608;2024-01-15T11:27:08;1.54;99.99
80579;SHT31;69939;52.402;6.608;2024-01-15T11:29:37;1.64;99.99
80579;SHT31;69939;52.402;6.608;2024-01-15T11:32:10;1.75;99.99
80579;SHT31;69939;52.402;6.608;2024-01-15T11:35:06;1.80;99.99
80579;SHT31;69939;52.402;6.608;2024-01-15T11:37:59;2.02;99.99
80579;SHT31;69939;52.402;6.608;2024-01-15T11:40:39;2.05;99.99
80579;SHT31;69939;52.402;6.608;2024-01-15T11:43:13;2.28;99.99
80579;SHT31;69939;52.402;6.608;2024-01-15T11:45:48;2.28;99.99
80579;SHT31;69939;52.402;6.608;2024-01-15T11:48:21;2.09;99.99
80579;SHT31;69939;52.402;6.608;2024-01-15T11:50:54;1.94;99.99
80579;SHT31;69939;52.402;6.608;2024-01-15T11:53:33;1.82;99.99
80579;SHT31;69939;52.402;6.608;2024-01-15T11:56:14;1.64;99.99
80579;SHT31;69939;52.402;6.608;2024-01-15T11:58:45;1.68;99.99
80579;SHT31;69939;52.402;6.608;2024-01-15T12:01:16;1.67;99.99
80579;SHT31;69939;52.402;6.608;2024-01-15T12:03:47;1.59;99.99
80579;SHT31;69939;52.402;6.608;2024-01-15T12:06:17;1.67;99.99
80579;SHT31;69939;52.402;6.608;2024-01-15T12:08:50;1.77;99.99
80579;SHT31;69939;52.402;6.608;2024-01-15T12:11:21;1.93;99.99
80579;SHT31;69939;52.402;6.608;2024-01-15T12:13:54;1.66;99.99
80579;SHT31;69939;52.402;6.608;2024-01-15T12:16:25;1.63;99.99
80579;SHT31;69939;52.402;6.608;2024-01-15T12:19:00;1.67;99.99
80579;SHT31;69939;52.402;6.608;2024-01-15T12:21:30;1.85;99.99
80579;SHT31;69939;52.402;6.608;2024-01-15T12:24:00;1.99;99.99
80579;SHT31;69939;52.402;6.608;2024-01-15T12:26:30;1.99;99.99
80579;SHT31;69939;52.402;6.608;2024-01-15T12:29:00;2.15;99.99
80579;SHT31;69939;52.402;6.608;2024-01-15T12:31:30;2.58;99.99
80579;SHT31;69939;52.402;6.608;2024-01-15T12:34:02;2.43;99.61
80579;SHT31;69939;52.402;6.608;2024-01-15T12:36:32;2.77;99.99
80579;SHT31;69939;52.402;6.608;2024-01-15T12:39:01;2.91;99.05
80579;SHT31;69939;52.402;6.608;2024-01-15T12:41:34;2.95;98.69
80579;SHT31;69939;52.402;6.608;2024-01-15T12:44:04;2.94;97.32
80579;SHT31;69939;52.402;6.608;2024-01-15T12:46:34;2.87;97.00
80579;SHT31;69939;52.402;6.608;2024-01-15T12:49:07;2.88;98.02
80579;SHT31;69939;52.402;6.608;2024-01-15T12:51:37;2.80;97.73
80579;SHT31;69939;52.402;6.608;2024-01-15T12:54:06;2.68;97.71
80579;SHT31;69939;52.402;6.608;2024-01-15T12:56:36;2.74;98.25
80579;SHT31;69939;52.402;6.608;2024-01-15T12:59:05;2.73;98.61
80579;SHT31;69939;52.402;6.608;2024-01-15T13:01:34;2.50;98.41
80579;SHT31;69939;52.402;6.608;2024-01-15T13:04:10;2.40;99.19
80579;SHT31;69939;52.402;6.608;2024-01-15T13:06:39;2.32;99.39
80579;SHT31;69939;52.402;6.608;2024-01-15T13:09:11;1.98;99.63
80579;SHT31;69939;52.402;6.608;2024-01-15T13:11:40;1.84;99.85
80579;SHT31;69939;52.402;6.608;2024-01-15T13:14:10;1.80;99.99
80579;SHT31;69939;52.402;6.608;2024-01-15T13:16:39;1.71;99.99
80579;SHT31;69939;52.402;6.608;2024-01-15T13:19:12;1.71;99.99
80579;SHT31;69939;52.402;6.608;2024-01-15T13:21:42;1.70;99.52
80579;SHT31;69939;52.402;6.608;2024-01-15T13:24:11;1.73;99.29
80579;SHT31;69939;52.402;6.608;2024-01-15T13:26:41;1.71;99.99
80579;SHT31;69939;52.402;6.608;2024-01-15T13:29:10;1.67;99.99
80579;SHT31;69939;52.402;6.608;2024-01-15T13:31:46;1.66;99.99
80579;SHT31;69939;52.402;6.608;2024-01-15T13:34:15;1.70;99.99
80579;SHT31;69939;52.402;6.608;2024-01-15T13:36:51;1.68;99.99
80579;SHT31;69939;52.402;6.608;2024-01-15T13:39:21;1.71;99.99
80579;SHT31;69939;52.402;6.608;2024-01-15T13:41:51;1.70;99.99
80579;SHT31;69939;52.402;6.608;2024-01-15T13:44:20;1.66;99.99
80579;SHT31;69939;52.402;6.608;2024-01-15T13:46:50;1.67;99.99
80579;SHT31;69939;52.402;6.608;2024-01-15T13:49:20;1.77;99.99
80579;SHT31;69939;52.402;6.608;2024-01-15T13:51:52;1.73;99.99
80579;SHT31;69939;52.402;6.608;2024-01-15T13:54:21;1.85;99.99
80579;SHT31;69939;52.402;6.608;2024-01-15T13:56:51;2.25;99.99
80579;SHT31;69939;52.402;6.608;2024-01-15T13:59:20;2.09;99.99
80579;SHT31;69939;52.402;6.608;2024-01-15T14:01:50;2.21;99.99
80579;SHT31;69939;52.402;6.608;2024-01-15T14:04:19;2.68;99.99
80579;SHT31;69939;52.402;6.608;2024-01-15T14:06:51;3.12;97.67
80579;SHT31;69939;52.402;6.608;2024-01-15T14:09:21;2.60;97.35
80579;SHT31;69939;52.402;6.608;2024-01-15T14:11:52;2.46;99.38
80579;SHT31;69939;52.402;6.608;2024-01-15T14:14:21;2.37;99.05
80579;SHT31;69939;52.402;6.608;2024-01-15T14:16:50;2.43;99.60
80579;SHT31;69939;52.402;6.608;2024-01-15T14:19:20;2.54;99.88
80579;SHT31;69939;52.402;6.608;2024-01-15T14:21:52;2.64;99.49
80579;SHT31;69939;52.402;6.608;2024-01-15T14:24:30;3.11;98.79
80579;SHT31;69939;52.402;6.608;2024-01-15T14:26:59;2.88;96.85
80579;SHT31;69939;52.402;6.608;2024-01-15T14:29:35;2.79;97.93
80579;SHT31;69939;52.402;6.608;2024-01-15T14:32:05;2.66;96.67
80579;SHT31;69939;52.402;6.608;2024-01-15T14:34:34;2.64;96.98
80579;SHT31;69939;52.402;6.608;2024-01-15T14:37:05;2.87;96.38
80579;SHT31;69939;52.402;6.608;2024-01-15T14:39:34;2.97;96.01
80579;SHT31;69939;52.402;6.608;2024-01-15T14:42:10;3.15;95.57
80579;SHT31;69939;52.402;6.608;2024-01-15T14:44:39;3.36;95.39
80579;SHT31;69939;52.402;6.608;2024-01-15T14:47:15;3.42;94.07
80579;SHT31;69939;52.402;6.608;2024-01-15T14:49:44;3.43;92.91
80579;SHT31;69939;52.402;6.608;2024-01-15T14:52:16;3.29;92.80
80579;SHT31;69939;52.402;6.608;2024-01-15T14:54:50;3.48;93.53
80579;SHT31;69939;52.402;6.608;2024-01-15T14:57:20;3.42;93.19
80579;SHT31;69939;52.402;6.608;2024-01-15T14:59:49;3.28;93.66
80579;SHT31;69939;52.402;6.608;2024-01-15T15:02:22;3.15;93.70
80579;SHT31;69939;52.402;6.608;2024-01-15T15:04:55;2.94;93.81
80579;SHT31;69939;52.402;6.608;2024-01-15T15:07:26;2.66;94.92
80579;SHT31;69939;52.402;6.608;2024-01-15T15:09:56;2.17;95.80
80579;SHT31;69939;52.402;6.608;2024-01-15T15:12:25;2.02;96.45
80579;SHT31;69939;52.402;6.608;2024-01-15T15:14:56;2.02;97.09
80579;SHT31;69939;52.402;6.608;2024-01-15T15:17:28;1.98;97.49
80579;SHT31;69939;52.402;6.608;2024-01-15T15:19:57;1.77;96.29
80579;SHT31;69939;52.402;6.608;2024-01-15T15:22:28;1.70;97.38
80579;SHT31;69939;52.402;6.608;2024-01-15T15:24:57;1.67;97.75
80579;SHT31;69939;52.402;6.608;2024-01-15T15:27:27;1.60;97.70
80579;SHT31;69939;52.402;6.608;2024-01-15T15:29:56;1.51;97.83
80579;SHT31;69939;52.402;6.608;2024-01-15T15:32:28;1.46;97.52
80579;SHT31;69939;52.402;6.608;2024-01-15T15:34:58;1.44;97.59
80579;SHT31;69939;52.402;6.608;2024-01-15T15:37:34;1.42;97.38
80579;SHT31;69939;52.402;6.608;2024-01-15T15:40:05;1.46;96.66
80579;SHT31;69939;52.402;6.608;2024-01-15T15:42:37;1.46;96.80
80579;SHT31;69939;52.402;6.608;2024-01-15T15:45:07;1.46;96.89
80579;SHT31;69939;52.402;6.608;2024-01-15T15:47:37;1.46;97.18
80579;SHT31;69939;52.402;6.608;2024-01-15T15:50:07;1.50;96.44
80579;SHT31;69939;52.402;6.608;2024-01-15T15:52:40;1.53;96.25
80579;SHT31;69939;52.402;6.608;2024-01-15T15:55:10;1.49;96.60
80579;SHT31;69939;52.402;6.608;2024-01-15T15:57:39;1.47;96.10
80579;SHT31;69939;52.402;6.608;2024-01-15T16:00:10;1.49;95.82
80579;SHT31;69939;52.402;6.608;2024-01-15T16:02:40;1.50;95.56
80579;SHT31;69939;52.402;6.608;2024-01-15T16:05:10;1.60;94.25
80579;SHT31;69939;52.402;6.608;2024-01-15T16:07:42;1.57;93.87
80579;SHT31;69939;52.402;6.608;2024-01-15T16:10:11;1.63;93.59